sensor_id;sensor_type;location;lat;lon;timestamp;pressure;altitude;pressure_sealevel;temperature;humidity
48824;BME280;34640;53.590;10.054;2022-12-18T00:00:45;102484.09;;;-4.38;100.00
48824;BME280;34640;53.590;10.054;2022-12-18T00:03:19;102478.81;;;-4.45;100.00
48824;BME280;34640;53.590;10.054;2022-12-18T00:05:53;102486.66;;;-4.43;100.00
48824;BME280;34640;53.590;10.054;2022-12-18T00:08:27;102482.75;;;-4.47;100.00
48824;BME280;34640;53.590;10.054;2022-12-18T00:11:05;102471.69;;;-4.47;100.00
48824;BME280;34640;53.590;10.054;2022-12-18T00:13:39;102473.78;;;-4.50;100.00
48824;BME280;34640;53.590;10.054;2022-12-18T00:16:15;102470.53;;;-4.49;100.00
48824;BME280;34640;53.590;10.054;2022-12-18T00:18:53;102469.34;;;-4.46;100.00
48824;BME280;34640;53.590;10.054;2022-12-18T00:21:31;102478.59;;;-4.46;100.00
48824;BME280;34640;53.590;10.054;2022-12-18T00:24:05;102479.53;;;-4.46;100.00
48824;BME280;34640;53.590;10.054;2022-12-18T00:26:41;102480.22;;;-4.47;100.00
48824;BME280;34640;53.590;10.054;2022-12-18T00:29:14;102489.28;;;-4.54;100.00
48824;BME280;34640;53.590;10.054;2022-12-18T00:31:48;102493.88;;;-4.57;100.00
48824;BME280;34640;53.590;10.054;2022-12-18T00:34:22;102491.13;;;-4.59;100.00
48824;BME280;34640;53.590;10.054;2022-12-18T00:36:56;102500.84;;;-4.62;100.00
48824;BME280;34640;53.590;10.054;2022-12-18T00:39:30;102510.56;;;-4.65;100.00
48824;BME280;34640;53.590;10.054;2022-12-18T00:42:05;102494.19;;;-4.67;100.00
48824;BME280;34640;53.590;10.054;2022-12-18T00:44:56;102495.56;;;-4.69;100.00
48824;BME280;34640;53.590;10.054;2022-12-18T00:47:30;102490.00;;;-4.67;100.00
48824;BME280;34640;53.590;10.054;2022-12-18T00:50:05;102500.69;;;-4.75;100.00
48824;BME280;34640;53.590;10.054;2022-12-18T00:52:42;102499.53;;;-4.77;100.00
48824;BME280;34640;53.590;10.054;2022-12-18T00:55:16;102497.44;;;-4.79;100.00
48824;BME280;34640;53.590;10.054;2022-12-18T00:57:52;102496.06;;;-4.83;100.00
48824;BME280;34640;53.590;10.054;2022-12-18T01:00:26;102489.84;;;-4.85;100.00
48824;BME280;34640;53.590;10.054;2022-12-18T01:02:59;102495.16;;;-4.83;100.00
48824;BME280;34640;53.590;10.054;2022-12-18T01:05:33;102484.75;;;-4.85;100.00
48824;BME280;34640;53.590;10.054;2022-12-18T01:08:07;102490.53;;;-4.86;100.00
48824;BME280;34640;53.590;10.054;2022-12-18T01:10:41;102504.41;;;-4.89;100.00
48824;BME280;34640;53.590;10.054;2022-12-18T01:13:16;102507.88;;;-4.89;100.00
48824;BME280;34640;53.590;10.054;2022-12-18T01:15:50;102518.25;;;-4.87;100.00
48824;BME280;34640;53.590;10.054;2022-12-18T01:18:23;102517.59;;;-4.92;100.00
48824;BME280;34640;53.590;10.054;2022-12-18T01:20:57;102514.81;;;-4.94;100.00
48824;BME280;34640;53.590;10.054;2022-12-18T01:23:31;102510.44;;;-4.95;100.00
48824;BME280;34640;53.590;10.054;2022-12-18T01:26:06;102511.13;;;-4.96;100.00
48824;BME280;34640;53.590;10.054;2022-12-18T01:28:41;102503.28;;;-4.97;100.00
48824;BME280;34640;53.590;10.054;2022-12-18T01:31:18;102498.22;;;-4.97;100.00
48824;BME280;34640;53.590;10.054;2022-12-18T01:33:52;102509.28;;;-4.97;100.00
48824;BME280;34640;53.590;10.054;2022-12-18T01:36:27;102503.75;;;-4.94;100.00
48824;BME280;34640;53.590;10.054;2022-12-18T01:39:04;102503.28;;;-4.97;100.00
48824;BME280;34640;53.590;10.054;2022-12-18T01:41:38;102508.16;;;-4.99;100.00
48824;BME280;34640;53.590;10.054;2022-12-18T01:45:06;102515.06;;;-5.03;100.00
48824;BME280;34640;53.590;10.054;2022-12-18T01:47:43;102509.50;;;-5.01;100.00
48824;BME280;34640;53.590;10.054;2022-12-18T01:50:20;102508.16;;;-4.99;100.00
48824;BME280;34640;53.590;10.054;2022-12-18T01:52:58;102514.13;;;-5.04;100.00
48824;BME280;34640;53.590;10.054;2022-12-18T01:55:41;102524.53;;;-5.02;100.00
48824;BME280;34640;53.590;10.054;2022-12-18T01:58:17;102527.09;;;-5.08;100.00
48824;BME280;34640;53.590;10.054;2022-12-18T02:00:54;102523.38;;;-5.04;100.00
48824;BME280;34640;53.590;10.054;2022-12-18T02:03:28;102520.38;;;-5.07;100.00
48824;BME280;34640;53.590;10.054;2022-12-18T02:06:09;102517.41;;;-5.10;100.00
48824;BME280;34640;53.590;10.054;2022-12-18T02:08:58;102514.13;;;-5.04;100.00
48824;BME280;34640;53.590;10.054;2022-12-18T02:11:44;102519.69;;;-5.06;100.00
48824;BME280;34640;53.590;10.054;2022-12-18T02:14:27;102520.38;;;-5.07;100.00
48824;BME280;34640;53.590;10.054;2022-12-18T02:17:08;102521.53;;;-5.05;100.00
48824;BME280;34640;53.590;10.054;2022-12-18T02:20:02;102520.63;;;-5.06;100.00
48824;BME280;34640;53.590;10.054;2022-12-18T02:22:47;102517.16;;;-5.06;100.00
48824;BME280;34640;53.590;10.054;2022-12-18T02:25:51;102520.84;;;-5.10;100.00
48824;BME280;34640;53.590;10.054;2022-12-18T02:28:31;102538.19;;;-5.13;100.00
48824;BME280;34640;53.590;10.054;2022-12-18T02:31:08;102537.25;;;-5.13;100.00
48824;BME280;34640;53.590;10.054;2022-12-18T02:33:45;102535.19;;;-5.16;100.00
48824;BME280;34640;53.590;10.054;2022-12-18T02:36:21;102544.41;;;-5.16;100.00
48824;BME280;34640;53.590;10.054;2022-12-18T02:38:56;102547.41;;;-5.13;100.00
48824;BME280;34640;53.590;10.054;2022-12-18T02:41:35;102546.50;;;-5.14;100.00
48824;BME280;34640;53.590;10.054;2022-12-18T02:44:13;102542.34;;;-5.13;100.00
48824;BME280;34640;53.590;10.054;2022-12-18T02:46:50;102546.97;;;-5.16;100.00
48824;BME280;34640;53.590;10.054;2022-12-18T02:49:31;102545.31;;;-5.22;100.00
48824;BME280;34640;53.590;10.054;2022-12-18T02:52:15;102547.63;;;-5.23;100.00
48824;BME280;34640;53.590;10.054;2022-12-18T02:54:59;102549.75;;;-5.20;100.00
48824;BME280;34640;53.590;10.054;2022-12-18T02:57:41;102553.88;;;-5.21;100.00
48824;BME280;34640;53.590;10.054;2022-12-18T03:00:19;102555.75;;;-5.20;100.00
48824;BME280;34640;53.590;10.054;2022-12-18T03:02:59;102564.97;;;-5.20;100.00
48824;BME280;34640;53.590;10.054;2022-12-18T03:05:50;102562.88;;;-5.23;100.00
48824;BME280;34640;53.590;10.054;2022-12-18T03:08:27;102560.56;;;-5.27;100.00
48824;BME280;34640;53.590;10.054;2022-12-18T03:11:05;102555.03;;;-5.30;100.00
48824;BME280;34640;53.590;10.054;2022-12-18T03:13:46;102560.34;;;-5.29;100.00
48824;BME280;34640;53.590;10.054;2022-12-18T03:16:23;102552.03;;;-5.28;100.00
48824;BME280;34640;53.590;10.054;2022-12-18T03:19:01;102558.97;;;-5.32;100.00
48824;BME280;34640;53.590;10.054;2022-12-18T03:21:41;102553.91;;;-5.38;100.00
48824;BME280;34640;53.590;10.054;2022-12-18T03:24:17;102550.91;;;-5.41;100.00
48824;BME280;34640;53.590;10.054;2022-12-18T03:26:56;102554.78;;;-5.43;100.00
48824;BME280;34640;53.590;10.054;2022-12-18T03:29:35;102557.81;;;-5.45;100.00
48824;BME280;34640;53.590;10.054;2022-12-18T03:32:13;102558.03;;;-5.44;100.00
48824;BME280;34640;53.590;10.054;2022-12-18T03:34:50;102564.72;;;-5.44;100.00
48824;BME280;34640;53.590;10.054;2022-12-18T03:37:26;102558.50;;;-5.46;100.00
48824;BME280;34640;53.590;10.054;2022-12-18T03:40:05;102558.72;;;-5.45;100.00
48824;BME280;34640;53.590;10.054;2022-12-18T03:42:45;102557.81;;;-5.45;100.00
48824;BME280;34640;53.590;10.054;2022-12-18T03:45:27;102556.66;;;-5.47;100.00
48824;BME280;34640;53.590;10.054;2022-12-18T03:48:09;102553.88;;;-5.49;100.00
48824;BME280;34640;53.590;10.054;2022-12-18T03:50:52;102563.81;;;-5.50;100.00
48824;BME280;34640;53.590;10.054;2022-12-18T03:53:34;102546.03;;;-5.50;100.00
48824;BME280;34640;53.590;10.054;2022-12-18T03:56:12;102549.03;;;-5.53;100.00
48824;BME280;34640;53.590;10.054;2022-12-18T03:58:48;102553.44;;;-5.58;100.00
48824;BME280;34640;53.590;10.054;2022-12-18T04:01:30;102551.34;;;-5.55;100.00
48824;BME280;34640;53.590;10.054;2022-12-18T04:04:06;102543.75;;;-5.55;100.00
48824;BME280;34640;53.590;10.054;2022-12-18T04:06:43;102555.03;;;-5.58;100.00
48824;BME280;34640;53.590;10.054;2022-12-18T04:09:17;102551.81;;;-5.57;100.00
48824;BME280;34640;53.590;10.054;2022-12-18T04:11:52;102552.50;;;-5.53;100.00
48824;BME280;34640;53.590;10.054;2022-12-18T04:14:25;102547.66;;;-5.62;100.00
48824;BME280;34640;53.590;10.054;2022-12-18T04:17:01;102550.63;;;-5.65;100.00
48824;BME280;34640;53.590;10.054;2022-12-18T04:19:34;102555.47;;;-5.66;100.00
48824;BME280;34640;53.590;10.054;2022-12-18T04:22:09;102555.00;;;-5.69;100.00
48824;BME280;34640;53.590;10.054;2022-12-18T04:24:43;102550.63;;;-5.70;100.00
48824;BME280;34640;53.590;10.054;2022-12-18T04:27:17;102552.25;;;-5.76;100.00
48824;BME280;34640;53.590;10.054;2022-12-18T04:29:51;102552.72;;;-5.79;100.00
48824;BME280;34640;53.590;10.054;2022-12-18T04:32:26;102556.63;;;-5.81;100.00
48824;BME280;34640;53.590;10.054;2022-12-18T04:35:00;102562.63;;;-5.80;100.00
48824;BME280;34640;53.590;10.054;2022-12-18T04:37:34;102562.16;;;-5.83;100.00
48824;BME280;34640;53.590;10.054;2022-12-18T04:40:08;102551.31;;;-5.82;100.00
48824;BME280;34640;53.590;10.054;2022-12-18T04:42:42;102551.09;;;-5.84;100.00
48824;BME280;34640;53.590;10.054;2022-12-18T04:45:16;102547.16;;;-5.88;100.00
48824;BME280;34640;53.590;10.054;2022-12-18T04:47:51;102545.78;;;-5.86;100.00
48824;BME280;34640;53.590;10.054;2022-12-18T04:50:25;102547.84;;;-5.89;100.00
48824;BME280;34640;53.590;10.054;2022-12-18T04:52:59;102547.16;;;-5.88;100.00
48824;BME280;34640;53.590;10.054;2022-12-18T04:55:33;102557.28;;;-5.88;100.00
48824;BME280;34640;53.590;10.054;2022-12-18T04:58:07;102547.84;;;-5.89;100.00
48824;BME280;34640;53.590;10.054;2022-12-18T05:00:40;102558.47;;;-5.91;100.00
48824;BME280;34640;53.590;10.054;2022-12-18T05:03:16;102570.22;;;-5.92;100.00
48824;BME280;34640;53.590;10.054;2022-12-18T05:05:49;102567.69;;;-5.97;100.00
48824;BME280;34640;53.590;10.054;2022-12-18T05:08:24;102577.16;;;-5.96;100.00
48824;BME280;34640;53.590;10.054;2022-12-18T05:10:58;102579.00;;;-5.95;100.00
48824;BME280;34640;53.590;10.054;2022-12-18T05:13:34;102579.44;;;-5.98;100.00
48824;BME280;34640;53.590;10.054;2022-12-18T05:16:09;102577.16;;;-5.96;100.00
48824;BME280;34640;53.590;10.054;2022-12-18T05:18:44;102579.69;;;-5.96;100.00
48824;BME280;34640;53.590;10.054;2022-12-18T05:21:18;102581.97;;;-5.98;100.00
48824;BME280;34640;53.590;10.054;2022-12-18T05:23:52;102587.50;;;-6.00;100.00
48824;BME280;34640;53.590;10.054;2022-12-18T05:26:25;102577.13;;;-6.02;100.00
48824;BME280;34640;53.590;10.054;2022-12-18T05:28:59;102585.91;;;-6.00;100.00
48824;BME280;34640;53.590;10.054;2022-12-18T05:31:33;102580.84;;;-6.00;100.00
48824;BME280;34640;53.590;10.054;2022-12-18T05:34:12;102585.91;;;-6.00;100.00
48824;BME280;34640;53.590;10.054;2022-12-18T05:36:46;102583.13;;;-6.01;100.00
48824;BME280;34640;53.590;10.054;2022-12-18T05:39:20;102589.34;;;-5.99;100.00
48824;BME280;34640;53.590;10.054;2022-12-18T05:41:54;102592.56;;;-6.06;100.00
48824;BME280;34640;53.590;10.054;2022-12-18T05:44:27;102603.66;;;-6.05;100.00
48824;BME280;34640;53.590;10.054;2022-12-18T05:47:01;102608.25;;;-6.03;100.00
48824;BME280;34640;53.590;10.054;2022-12-18T05:49:36;102604.56;;;-6.05;100.00
48824;BME280;34640;53.590;10.054;2022-12-18T05:52:10;102603.41;;;-6.01;100.00
48824;BME280;34640;53.590;10.054;2022-12-18T05:54:44;102595.81;;;-6.07;100.00
48824;BME280;34640;53.590;10.054;2022-12-18T05:57:17;102605.22;;;-6.11;100.00
48824;BME280;34640;53.590;10.054;2022-12-18T05:59:51;102602.44;;;-6.13;100.00
48824;BME280;34640;53.590;10.054;2022-12-18T06:02:25;102599.22;;;-6.12;100.00
48824;BME280;34640;53.590;10.054;2022-12-18T06:05:01;102599.91;;;-6.13;100.00
48824;BME280;34640;53.590;10.054;2022-12-18T06:07:35;102595.06;;;-6.11;100.00
48824;BME280;34640;53.590;10.054;2022-12-18T06:10:09;102601.97;;;-6.10;100.00
48824;BME280;34640;53.590;10.054;2022-12-18T06:12:43;102608.91;;;-6.09;100.00
48824;BME280;34640;53.590;10.054;2022-12-18T06:15:20;102610.28;;;-6.11;100.00
48824;BME280;34640;53.590;10.054;2022-12-18T06:17:53;102617.88;;;-6.11;100.00
48824;BME280;34640;53.590;10.054;2022-12-18T06:20:32;102607.75;;;-6.11;100.00
48824;BME280;34640;53.590;10.054;2022-12-18T06:23:08;102617.41;;;-6.14;100.00
48824;BME280;34640;53.590;10.054;2022-12-18T06:25:43;102618.34;;;-6.14;100.00
48824;BME280;34640;53.590;10.054;2022-12-18T06:28:16;102618.81;;;-6.11;100.00
48824;BME280;34640;53.590;10.054;2022-12-18T06:30:50;102615.56;;;-6.16;100.00
48824;BME280;34640;53.590;10.054;2022-12-18T06:33:26;102614.41;;;-6.18;100.00
48824;BME280;34640;53.590;10.054;2022-12-18T06:36:02;102627.78;;;-6.19;100.00
48824;BME280;34640;53.590;10.054;2022-12-18T06:38:38;102618.09;;;-6.16;100.00
48824;BME280;34640;53.590;10.054;2022-12-18T06:41:15;102625.47;;;-6.17;100.00
48824;BME280;34640;53.590;10.054;2022-12-18T06:43:49;102627.09;;;-6.18;100.00
48824;BME280;34640;53.590;10.054;2022-12-18T06:46:27;102623.88;;;-6.17;100.00
48824;BME280;34640;53.590;10.054;2022-12-18T06:49:00;102625.25;;;-6.19;100.00
48824;BME280;34640;53.590;10.054;2022-12-18T06:51:36;102626.16;;;-6.18;100.00
48824;BME280;34640;53.590;10.054;2022-12-18T06:54:10;102628.47;;;-6.20;100.00
48824;BME280;34640;53.590;10.054;2022-12-18T06:56:44;102629.59;;;-6.23;100.00
48824;BME280;34640;53.590;10.054;2022-12-18T06:59:18;102631.44;;;-6.28;100.00
48824;BME280;34640;53.590;10.054;2022-12-18T07:01:52;102630.28;;;-6.24;100.00
48824;BME280;34640;53.590;10.054;2022-12-18T07:04:28;102627.28;;;-6.27;100.00
48824;BME280;34640;53.590;10.054;2022-12-18T07:07:03;102634.66;;;-6.29;100.00
48824;BME280;34640;53.590;10.054;2022-12-18T07:09:37;102621.72;;;-6.30;100.00
48824;BME280;34640;53.590;10.054;2022-12-18T07:12:10;102624.00;;;-6.32;100.00
48824;BME280;34640;53.590;10.054;2022-12-18T07:14:44;102635.06;;;-6.31;100.00
48824;BME280;34640;53.590;10.054;2022-12-18T07:17:18;102635.06;;;-6.31;100.00
48824;BME280;34640;53.590;10.054;2022-12-18T07:19:52;102642.50;;;-6.27;100.00
48824;BME280;34640;53.590;10.054;2022-12-18T07:22:27;102640.44;;;-6.24;100.00
48824;BME280;34640;53.590;10.054;2022-12-18T07:25:01;102645.06;;;-6.22;100.00
48824;BME280;34640;53.590;10.054;2022-12-18T07:27:35;102652.22;;;-6.19;100.00
48824;BME280;34640;53.590;10.054;2022-12-18T07:30:10;102646.69;;;-6.17;100.00
48824;BME280;34640;53.590;10.054;2022-12-18T07:32:44;102649.91;;;-6.18;100.00
48824;BME280;34640;53.590;10.054;2022-12-18T07:35:18;102655.91;;;-6.17;100.00
48824;BME280;34640;53.590;10.054;2022-12-18T07:37:58;102649.44;;;-6.15;100.00
48824;BME280;34640;53.590;10.054;2022-12-18T07:40:31;102652.91;;;-6.14;100.00
48824;BME280;34640;53.590;10.054;2022-12-18T07:43:05;102654.53;;;-6.09;100.00
48824;BME280;34640;53.590;10.054;2022-12-18T07:45:39;102655.47;;;-6.09;100.00
48824;BME280;34640;53.590;10.054;2022-12-18T07:48:13;102655.44;;;-6.14;100.00
48824;BME280;34640;53.590;10.054;2022-12-18T07:50:47;102665.81;;;-6.13;100.00
48824;BME280;34640;53.590;10.054;2022-12-18T07:53:22;102675.03;;;-6.13;100.00
48824;BME280;34640;53.590;10.054;2022-12-18T07:55:56;102670.88;;;-6.13;100.00
48824;BME280;34640;53.590;10.054;2022-12-18T07:58:50;102671.81;;;-6.12;100.00
48824;BME280;34640;53.590;10.054;2022-12-18T08:01:24;102671.81;;;-6.12;100.00
48824;BME280;34640;53.590;10.054;2022-12-18T08:03:58;102678.47;;;-6.19;100.00
48824;BME280;34640;53.590;10.054;2022-12-18T08:06:32;102671.78;;;-6.24;100.00
48824;BME280;34640;53.590;10.054;2022-12-18T08:09:09;102670.63;;;-6.20;100.00
48824;BME280;34640;53.590;10.054;2022-12-18T08:11:43;102672.94;;;-6.22;100.00
48824;BME280;34640;53.590;10.054;2022-12-18T08:14:17;102669.03;;;-6.20;100.00
48824;BME280;34640;53.590;10.054;2022-12-18T08:16:51;102660.06;;;-6.12;100.00
48824;BME280;34640;53.590;10.054;2022-12-18T08:19:25;102661.22;;;-6.10;100.00
48824;BME280;34640;53.590;10.054;2022-12-18T08:21:59;102663.56;;;-6.06;100.00
48824;BME280;34640;53.590;10.054;2022-12-18T08:24:34;102661.28;;;-6.04;100.00
48824;BME280;34640;53.590;10.054;2022-12-18T08:27:08;102667.28;;;-5.98;100.00
48824;BME280;34640;53.590;10.054;2022-12-18T08:30:01;102659.91;;;-5.97;100.00
48824;BME280;34640;53.590;10.054;2022-12-18T08:32:35;102661.31;;;-5.93;100.00
48824;BME280;34640;53.590;10.054;2022-12-18T08:35:10;102659.00;;;-5.92;100.00
48824;BME280;34640;53.590;10.054;2022-12-18T08:37:49;102652.75;;;-5.88;100.00
48824;BME280;34640;53.590;10.054;2022-12-18T08:40:27;102652.56;;;-5.78;100.00
48824;BME280;34640;53.590;10.054;2022-12-18T08:43:00;102659.94;;;-5.74;100.00
48824;BME280;34640;53.590;10.054;2022-12-18T08:45:52;102666.66;;;-5.69;100.00
48824;BME280;34640;53.590;10.054;2022-12-18T08:48:25;102671.50;;;-5.65;100.00
48824;BME280;34640;53.590;10.054;2022-12-18T08:51:00;102662.53;;;-5.63;100.00
48824;BME280;34640;53.590;10.054;2022-12-18T08:53:33;102663.94;;;-5.60;100.00
48824;BME280;34640;53.590;10.054;2022-12-18T08:56:08;102660.69;;;-5.59;100.00
48824;BME280;34640;53.590;10.054;2022-12-18T08:58:42;102660.94;;;-5.51;100.00
48824;BME280;34640;53.590;10.054;2022-12-18T09:01:16;102661.41;;;-5.48;100.00
48824;BME280;34640;53.590;10.054;2022-12-18T09:03:50;102655.41;;;-5.43;100.00
48824;BME280;34640;53.590;10.054;2022-12-18T09:06:24;102654.50;;;-5.38;100.00
48824;BME280;34640;53.590;10.054;2022-12-18T09:08:59;102663.97;;;-5.37;100.00
48824;BME280;34640;53.590;10.054;2022-12-18T09:11:34;102671.59;;;-5.32;100.00
48824;BME280;34640;53.590;10.054;2022-12-18T09:14:09;102673.91;;;-5.28;100.00
48824;BME280;34640;53.590;10.054;2022-12-18T09:16:43;102661.94;;;-5.17;100.00
48824;BME280;34640;53.590;10.054;2022-12-18T09:19:17;102666.78;;;-5.13;100.00
48824;BME280;34640;53.590;10.054;2022-12-18T09:21:50;102661.69;;;-5.08;100.00
48824;BME280;34640;53.590;10.054;2022-12-18T09:24:24;102665.59;;;-5.04;100.00
48824;BME280;34640;53.590;10.054;2022-12-18T09:27:00;102658.44;;;-5.01;100.00
48824;BME280;34640;53.590;10.054;2022-12-18T09:29:33;102666.09;;;-4.96;100.00
48824;BME280;34640;53.590;10.054;2022-12-18T09:32:07;102664.22;;;-4.91;100.00
48824;BME280;34640;53.590;10.054;2022-12-18T09:34:41;102667.91;;;-4.83;100.00
48824;BME280;34640;53.590;10.054;2022-12-18T09:37:15;102664.22;;;-4.74;100.00
48824;BME280;34640;53.590;10.054;2022-12-18T09:39:48;102672.28;;;-4.60;100.00
48824;BME280;34640;53.590;10.054;2022-12-18T09:42:23;102667.41;;;-4.42;100.00
48824;BME280;34640;53.590;10.054;2022-12-18T09:44:58;102662.28;;;-4.25;100.00
48824;BME280;34640;53.590;10.054;2022-12-18T09:47:35;102668.75;;;-4.27;100.00
48824;BME280;34640;53.590;10.054;2022-12-18T09:50:22;102673.84;;;-4.27;100.00
48824;BME280;34640;53.590;10.054;2022-12-18T09:52:59;102667.84;;;-4.27;100.00
48824;BME280;34640;53.590;10.054;2022-12-18T09:55:38;102670.13;;;-4.18;100.00
48824;BME280;34640;53.590;10.054;2022-12-18T09:58:18;102672.38;;;-4.03;100.00
48824;BME280;34640;53.590;10.054;2022-12-18T10:00:54;102678.16;;;-4.04;100.00
48824;BME280;34640;53.590;10.054;2022-12-18T10:03:28;102671.91;;;-4.00;100.00
48824;BME280;34640;53.590;10.054;2022-12-18T10:06:06;102669.09;;;-3.96;100.00
48824;BME280;34640;53.590;10.054;2022-12-18T10:08:48;102666.53;;;-3.85;100.00
48824;BME280;34640;53.590;10.054;2022-12-18T10:11:35;102674.81;;;-3.75;100.00
48824;BME280;34640;53.590;10.054;2022-12-18T10:14:19;102665.75;;;-3.67;100.00
48824;BME280;34640;53.590;10.054;2022-12-18T10:17:03;102662.81;;;-3.81;100.00
48824;BME280;34640;53.590;10.054;2022-12-18T10:19:45;102662.06;;;-3.75;100.00
48824;BME280;34640;53.590;10.054;2022-12-18T10:22:40;102661.38;;;-3.74;100.00
48824;BME280;34640;53.590;10.054;2022-12-18T10:25:21;102677.56;;;-3.67;100.00
48824;BME280;34640;53.590;10.054;2022-12-18T10:27:59;102676.56;;;-3.57;100.00
48824;BME280;34640;53.590;10.054;2022-12-18T10:30:39;102674.75;;;-3.63;100.00
48824;BME280;34640;53.590;10.054;2022-12-18T10:33:16;102680.50;;;-3.59;100.00
48824;BME280;34640;53.590;10.054;2022-12-18T10:35:51;102681.66;;;-3.57;100.00
48824;BME280;34640;53.590;10.054;2022-12-18T10:38:26;102683.94;;;-3.53;100.00
48824;BME280;34640;53.590;10.054;2022-12-18T10:41:02;102692.25;;;-3.48;100.00
48824;BME280;34640;53.590;10.054;2022-12-18T10:43:37;102683.91;;;-3.47;100.00
48824;BME280;34640;53.590;10.054;2022-12-18T10:46:16;102684.38;;;-3.44;100.00
48824;BME280;34640;53.590;10.054;2022-12-18T10:48:53;102675.78;;;-3.39;100.00
48824;BME280;34640;53.590;10.054;2022-12-18T10:51:29;102669.72;;;-3.34;100.00
48824;BME280;34640;53.590;10.054;2022-12-18T10:54:05;102665.47;;;-3.22;100.00
48824;BME280;34640;53.590;10.054;2022-12-18T10:56:40;102664.69;;;-3.10;100.00
48824;BME280;34640;53.590;10.054;2022-12-18T10:59:16;102656.13;;;-3.11;100.00
48824;BME280;34640;53.590;10.054;2022-12-18T11:01:54;102647.97;;;-3.08;100.00
48824;BME280;34640;53.590;10.054;2022-12-18T11:04:30;102648.41;;;-3.05;100.00
48824;BME280;34640;53.590;10.054;2022-12-18T11:07:05;102649.34;;;-3.04;100.00
48824;BME280;34640;53.590;10.054;2022-12-18T11:09:40;102654.41;;;-2.99;100.00
48824;BME280;34640;53.590;10.054;2022-12-18T11:12:16;102654.56;;;-2.92;100.00
48824;BME280;34640;53.590;10.054;2022-12-18T11:14:51;102661.72;;;-2.89;100.00
48824;BME280;34640;53.590;10.054;2022-12-18T11:17:30;102651.25;;;-2.80;100.00
48824;BME280;34640;53.590;10.054;2022-12-18T11:20:14;102652.75;;;-2.69;100.00
48824;BME280;34640;53.590;10.054;2022-12-18T11:22:56;102661.00;;;-2.59;100.00
48824;BME280;34640;53.590;10.054;2022-12-18T11:25:32;102662.09;;;-2.51;100.00
48824;BME280;34640;53.590;10.054;2022-12-18T11:28:27;102645.22;;;-2.56;100.00
48824;BME280;34640;53.590;10.054;2022-12-18T11:31:23;102636.38;;;-2.53;100.00
48824;BME280;34640;53.590;10.054;2022-12-18T11:34:02;102635.44;;;-2.53;100.00
48824;BME280;34640;53.590;10.054;2022-12-18T11:37:00;102637.34;;;-2.58;100.00
48824;BME280;34640;53.590;10.054;2022-12-18T11:39:37;102640.56;;;-2.53;100.00
48824;BME280;34640;53.590;10.054;2022-12-18T11:42:15;102638.00;;;-2.53;100.00
48824;BME280;34640;53.590;10.054;2022-12-18T11:44:54;102632.75;;;-2.42;100.00
48824;BME280;34640;53.590;10.054;2022-12-18T11:47:37;102634.81;;;-2.39;100.00
48824;BME280;34640;53.590;10.054;2022-12-18T11:50:18;102640.22;;;-2.25;100.00
48824;BME280;34640;53.590;10.054;2022-12-18T11:52:52;102624.00;;;-2.26;100.00
48824;BME280;34640;53.590;10.054;2022-12-18T11:55:41;102624.50;;;-2.28;100.00
48824;BME280;34640;53.590;10.054;2022-12-18T11:58:29;102626.28;;;-2.22;100.00
48824;BME280;34640;53.590;10.054;2022-12-18T12:01:15;102615.72;;;-2.30;100.00
48824;BME280;34640;53.590;10.054;2022-12-18T12:04:05;102610.63;;;-2.30;100.00
48824;BME280;34640;53.590;10.054;2022-12-18T12:06:49;102608.34;;;-2.34;100.00
48824;BME280;34640;53.590;10.054;2022-12-18T12:09:35;102598.28;;;-2.27;100.00
48824;BME280;34640;53.590;10.054;2022-12-18T12:12:24;102588.56;;;-2.30;100.00
48824;BME280;34640;53.590;10.054;2022-12-18T12:15:05;102582.19;;;-2.21;100.00
48824;BME280;34640;53.590;10.054;2022-12-18T12:17:50;102580.94;;;-2.11;100.00
48824;BME280;34640;53.590;10.054;2022-12-18T12:20:33;102587.88;;;-2.10;100.00
48824;BME280;34640;53.590;10.054;2022-12-18T12:23:17;102582.69;;;-2.05;100.00
48824;BME280;34640;53.590;10.054;2022-12-18T12:26:02;102580.25;;;-1.98;100.00
48824;BME280;34640;53.590;10.054;2022-12-18T12:28:51;102574.19;;;-1.93;100.00
48824;BME280;34640;53.590;10.054;2022-12-18T12:31:36;102564.28;;;-1.84;100.00
48824;BME280;34640;53.590;10.054;2022-12-18T12:34:17;102566.22;;;-1.89;100.00
48824;BME280;34640;53.590;10.054;2022-12-18T12:37:02;102560.81;;;-1.85;100.00
48824;BME280;34640;53.590;10.054;2022-12-18T12:39:44;102551.22;;;-1.80;100.00
48824;BME280;34640;53.590;10.054;2022-12-18T12:42:20;102548.78;;;-1.86;100.00
48824;BME280;34640;53.590;10.054;2022-12-18T12:45:20;102533.25;;;-1.87;100.00
48824;BME280;34640;53.590;10.054;2022-12-18T12:47:57;102532.44;;;-1.80;100.00
48824;BME280;34640;53.590;10.054;2022-12-18T12:50:33;102528.09;;;-1.69;100.00
48824;BME280;34640;53.590;10.054;2022-12-18T12:53:09;102520.44;;;-1.56;100.00
48824;BME280;34640;53.590;10.054;2022-12-18T12:55:49;102524.84;;;-1.55;100.00
48824;BME280;34640;53.590;10.054;2022-12-18T12:58:31;102523.03;;;-1.43;100.00
48824;BME280;34640;53.590;10.054;2022-12-18T13:01:13;102523.84;;;-1.50;100.00
48824;BME280;34640;53.590;10.054;2022-12-18T13:04:01;102532.00;;;-1.52;100.00
48824;BME280;34640;53.590;10.054;2022-12-18T13:06:42;102525.16;;;-1.59;100.00
48824;BME280;34640;53.590;10.054;2022-12-18T13:09:18;102523.84;;;-1.50;100.00
48824;BME280;34640;53.590;10.054;2022-12-18T13:12:02;102510.56;;;-1.47;100.00
48824;BME280;34640;53.590;10.054;2022-12-18T13:14:53;102514.34;;;-1.51;100.00
48824;BME280;34640;53.590;10.054;2022-12-18T13:17:45;102518.75;;;-1.50;100.00
48824;BME280;34640;53.590;10.054;2022-12-18T13:20:19;102517.22;;;-1.42;100.00
48824;BME280;34640;53.590;10.054;2022-12-18T13:22:53;102521.50;;;-1.36;100.00